createdAt,value
2022-12-11T00:00:22.669Z,12.35
2022-12-11T00:02:52.437Z,11.10
2022-12-11T00:05:22.222Z,10.65
2022-12-11T00:07:51.973Z,10.85
2022-12-11T00:10:21.762Z,11.98
2022-12-11T00:12:51.464Z,11.27
2022-12-11T00:15:23.769Z,10.82
2022-12-11T00:17:53.460Z,11.13
2022-12-11T00:20:23.264Z,12.68
2022-12-11T00:22:52.969Z,11.82
2022-12-11T00:25:22.668Z,11.90
2022-12-11T00:27:52.350Z,14.25
2022-12-11T00:30:24.706Z,13.98
2022-12-11T00:32:54.686Z,12.18
2022-12-11T00:35:24.459Z,11.88
2022-12-11T00:37:54.143Z,11.10
2022-12-11T00:40:23.827Z,11.05
2022-12-11T00:42:53.771Z,11.25
2022-12-11T00:45:26.096Z,11.73
2022-12-11T00:47:55.908Z,11.65
2022-12-11T00:50:25.862Z,11.02
2022-12-11T00:52:55.594Z,11.45
2022-12-11T00:55:25.562Z,12.45
2022-12-11T00:57:55.247Z,12.32
2022-12-11T01:00:27.877Z,11.00
2022-12-11T01:02:57.594Z,10.23
2022-12-11T01:05:27.298Z,11.13
2022-12-11T01:07:57.088Z,10.63
2022-12-11T01:10:27.126Z,11.10
2022-12-11T01:12:59.552Z,10.50
2022-12-11T01:15:37.425Z,9.63
2022-12-11T01:18:09.753Z,10.00
2022-12-11T01:20:41.058Z,10.57
2022-12-11T01:23:11.059Z,9.43
2022-12-11T01:25:40.994Z,9.85
2022-12-11T01:28:11.208Z,9.27
2022-12-11T01:30:44.381Z,10.45
2022-12-11T01:33:14.082Z,10.05
2022-12-11T01:35:44.036Z,9.48
2022-12-11T01:38:13.823Z,10.90
2022-12-11T01:40:50.456Z,12.85
2022-12-11T01:43:21.720Z,11.70
2022-12-11T01:45:54.170Z,9.80
2022-12-11T01:48:26.662Z,9.15
2022-12-11T01:50:59.136Z,10.90
2022-12-11T01:53:33.389Z,10.05
2022-12-11T01:56:03.711Z,10.60
2022-12-11T01:58:36.728Z,11.70
2022-12-11T02:01:09.093Z,11.32
2022-12-11T02:03:38.794Z,9.95
2022-12-11T02:06:08.935Z,10.18
2022-12-11T02:08:38.638Z,11.45
2022-12-11T02:11:16.544Z,11.93
2022-12-11T02:13:52.710Z,12.88
2022-12-11T02:16:36.629Z,12.45
2022-12-11T02:19:19.797Z,13.07
2022-12-11T02:21:53.591Z,11.93
2022-12-11T02:24:47.671Z,13.68
2022-12-11T02:27:34.954Z,12.98
2022-12-11T02:30:10.746Z,12.05
2022-12-11T02:32:48.152Z,11.38
2022-12-11T02:35:21.968Z,11.15
2022-12-11T02:37:57.485Z,9.98
2022-12-11T02:40:32.908Z,10.75
2022-12-11T02:43:07.533Z,10.15
2022-12-11T02:45:43.789Z,9.90
2022-12-11T02:48:14.666Z,9.32
2022-12-11T02:50:48.978Z,10.20
2022-12-11T02:53:22.314Z,10.38
2022-12-11T02:55:57.133Z,10.77
2022-12-11T02:58:31.022Z,11.20
2022-12-11T03:01:03.568Z,10.27
2022-12-11T03:03:33.488Z,10.05
2022-12-11T03:06:04.037Z,10.80
2022-12-11T03:08:34.692Z,11.18
2022-12-11T03:11:04.386Z,9.60
2022-12-11T03:13:34.348Z,9.55
2022-12-11T03:16:15.205Z,9.57
2022-12-11T03:18:54.258Z,9.95
2022-12-11T03:21:30.353Z,10.73
2022-12-11T03:24:06.324Z,10.88
2022-12-11T03:26:41.053Z,10.80
2022-12-11T03:29:19.154Z,12.33
2022-12-11T03:31:59.372Z,12.30
2022-12-11T03:34:34.194Z,12.27
2022-12-11T03:37:05.783Z,10.30
2022-12-11T03:39:41.249Z,12.30
2022-12-11T03:42:14.621Z,14.38
2022-12-11T03:44:47.647Z,12.63
2022-12-11T03:47:23.273Z,11.43
2022-12-11T03:52:23.816Z,11.25
2022-12-11T03:54:54.111Z,11.77
2022-12-11T03:57:28.591Z,10.13
2022-12-11T03:59:58.316Z,10.45
2022-12-11T04:02:30.862Z,10.27
2022-12-11T04:05:00.567Z,11.02
2022-12-11T04:07:31.326Z,9.93
2022-12-11T04:10:01.033Z,10.90
2022-12-11T04:12:30.775Z,11.05
2022-12-11T04:15:06.247Z,11.50
2022-12-11T04:17:51.960Z,11.38
2022-12-11T04:20:34.838Z,10.88
2022-12-11T04:23:19.804Z,11.15
2022-12-11T04:25:49.530Z,10.68
2022-12-11T04:28:19.331Z,10.57
2022-12-11T04:30:52.293Z,11.55
2022-12-11T04:33:24.702Z,10.48
2022-12-11T04:35:54.419Z,10.57
2022-12-11T04:38:24.121Z,11.07
2022-12-11T04:41:00.647Z,9.05
2022-12-11T04:43:30.784Z,10.90
2022-12-11T04:46:05.030Z,10.40
2022-12-11T04:48:37.690Z,9.90
2022-12-11T04:51:08.801Z,10.02
2022-12-11T04:53:39.210Z,9.27
2022-12-11T04:56:10.639Z,10.00
2022-12-11T04:58:40.815Z,8.07
2022-12-11T05:01:11.323Z,9.57
2022-12-11T05:03:44.770Z,9.02
2022-12-11T05:06:15.555Z,8.45
2022-12-11T05:08:46.228Z,8.65
2022-12-11T05:11:17.821Z,9.05
2022-12-11T05:13:48.305Z,9.45
2022-12-11T05:16:19.671Z,10.55
2022-12-11T05:18:52.036Z,11.00
2022-12-11T05:21:21.725Z,10.35
2022-12-11T05:23:51.478Z,10.13
2022-12-11T05:26:22.811Z,10.38
2022-12-11T05:28:54.828Z,11.13
2022-12-11T05:31:26.310Z,9.85
2022-12-11T05:33:58.689Z,10.35
2022-12-11T05:36:33.903Z,9.98
2022-12-11T05:39:04.989Z,11.45
2022-12-11T05:41:35.752Z,10.32
2022-12-11T05:44:05.959Z,9.07
2022-12-11T05:46:35.761Z,9.63
2022-12-11T05:49:08.661Z,10.07
2022-12-11T05:51:39.681Z,10.20
2022-12-11T05:54:09.411Z,10.18
2022-12-11T05:56:39.782Z,10.43
2022-12-11T05:59:10.073Z,10.27
2022-12-11T06:01:42.372Z,9.18
2022-12-11T06:04:15.444Z,9.90
2022-12-11T06:06:45.696Z,9.90
2022-12-11T06:09:17.061Z,10.50
2022-12-11T06:11:47.164Z,11.30
2022-12-11T06:14:16.911Z,11.63
2022-12-11T06:16:46.832Z,11.13
2022-12-11T06:19:20.277Z,11.40
2022-12-11T06:21:50.202Z,11.38
2022-12-11T06:24:20.123Z,10.90
2022-12-11T06:26:49.842Z,11.35
2022-12-11T06:29:19.714Z,11.35
2022-12-11T06:31:49.482Z,10.85
2022-12-11T06:34:21.950Z,11.77
2022-12-11T06:36:52.975Z,11.57
2022-12-11T06:39:22.995Z,11.45
2022-12-11T06:41:52.717Z,10.88
2022-12-11T06:44:22.490Z,11.05
2022-12-11T06:46:52.189Z,10.25
2022-12-11T06:49:24.720Z,9.32
2022-12-11T06:51:54.439Z,9.73
2022-12-11T06:54:28.145Z,9.57
2022-12-11T06:56:58.021Z,9.63
2022-12-11T06:59:27.766Z,10.10
2022-12-11T07:01:57.497Z,11.00
2022-12-11T07:04:30.741Z,10.90
2022-12-11T07:07:00.449Z,11.15
2022-12-11T07:09:30.247Z,11.07
2022-12-11T07:11:59.939Z,10.52
2022-12-11T07:14:29.711Z,11.30
2022-12-11T07:16:59.810Z,9.95
2022-12-11T07:19:32.287Z,10.70
2022-12-11T07:22:02.009Z,9.70
2022-12-11T07:24:31.682Z,10.40
2022-12-11T07:27:01.584Z,11.50
2022-12-11T07:29:31.294Z,10.25
2022-12-11T07:32:01.064Z,10.25
2022-12-11T07:34:33.469Z,10.90
2022-12-11T07:37:03.183Z,10.52
2022-12-11T07:39:32.888Z,10.95
2022-12-11T07:42:02.808Z,10.55
2022-12-11T07:44:33.144Z,11.52
2022-12-11T07:47:02.823Z,12.07
2022-12-11T07:49:35.243Z,11.90
2022-12-11T07:52:04.896Z,10.60
2022-12-11T07:54:34.594Z,11.40
2022-12-11T07:57:05.511Z,12.02
2022-12-11T07:59:37.876Z,22.83
2022-12-11T08:02:07.600Z,17.30
2022-12-11T08:04:40.038Z,17.20
2022-12-11T08:07:09.797Z,12.48
2022-12-11T08:09:40.034Z,10.77
2022-12-11T08:12:09.859Z,11.02
2022-12-11T08:14:40.688Z,11.88
2022-12-11T08:17:10.442Z,11.88
2022-12-11T08:19:42.720Z,12.27
2022-12-11T08:22:14.514Z,14.27
2022-12-11T08:24:44.505Z,13.30
2022-12-11T08:27:14.161Z,10.65
2022-12-11T08:29:43.911Z,10.30
2022-12-11T08:32:14.053Z,9.98
2022-12-11T08:34:46.544Z,18.75
2022-12-11T08:37:16.366Z,41.40
2022-12-11T08:39:47.073Z,20.73
2022-12-11T08:42:16.785Z,11.25
2022-12-11T08:44:46.566Z,17.70
2022-12-11T08:47:16.285Z,12.48
2022-12-11T08:49:48.632Z,11.18
2022-12-11T08:52:18.332Z,9.40
2022-12-11T08:54:48.402Z,8.90
2022-12-11T08:57:18.145Z,9.52
2022-12-11T08:59:47.905Z,9.40
2022-12-11T09:02:17.660Z,10.13
2022-12-11T09:04:50.630Z,11.02
2022-12-11T09:07:20.440Z,10.63
2022-12-11T09:09:50.284Z,8.32
2022-12-11T09:12:20.027Z,7.68
2022-12-11T09:14:49.929Z,8.52
2022-12-11T09:17:19.641Z,7.60
2022-12-11T09:19:52.038Z,8.65
2022-12-11T09:22:21.796Z,7.80
2022-12-11T09:24:51.798Z,8.73
2022-12-11T09:27:22.243Z,9.27
2022-12-11T09:29:52.005Z,9.05
2022-12-11T09:32:21.782Z,9.45
2022-12-11T09:34:55.653Z,9.80
2022-12-11T09:37:25.390Z,9.73
2022-12-11T09:39:55.151Z,10.07
2022-12-11T09:42:35.542Z,9.63
2022-12-11T09:45:07.114Z,9.75
2022-12-11T09:47:41.849Z,10.10
2022-12-11T09:50:21.039Z,7.35
2022-12-11T09:53:02.658Z,10.25
2022-12-11T09:55:39.653Z,9.38
2022-12-11T09:58:20.748Z,10.05
2022-12-11T10:00:55.602Z,10.55
2022-12-11T10:04:05.749Z,10.90
2022-12-11T10:06:45.151Z,10.00
2022-12-11T10:09:21.747Z,9.50
2022-12-11T10:12:02.898Z,10.50
2022-12-11T10:14:47.790Z,10.57
2022-12-11T10:17:23.466Z,9.90
2022-12-11T10:19:54.223Z,11.48
2022-12-11T10:22:30.484Z,9.73
2022-12-11T10:25:11.650Z,9.93
2022-12-11T10:27:44.787Z,10.15
2022-12-11T10:30:19.368Z,10.90
2022-12-11T10:33:01.976Z,11.07
2022-12-11T10:35:39.487Z,11.48
2022-12-11T10:38:19.313Z,11.40
2022-12-11T10:40:52.567Z,11.95
2022-12-11T10:43:22.355Z,12.07
2022-12-11T10:45:56.160Z,10.77
2022-12-11T10:48:25.979Z,12.57
2022-12-11T10:51:02.779Z,11.88
2022-12-11T10:53:37.555Z,12.02
2022-12-11T10:56:08.022Z,10.88
2022-12-11T10:58:43.111Z,10.95
2022-12-11T11:01:17.298Z,12.23
2022-12-11T11:03:58.372Z,10.85
2022-12-11T11:06:29.184Z,9.75
2022-12-11T11:09:03.242Z,10.50
2022-12-11T11:11:35.194Z,10.52
2022-12-11T11:14:16.970Z,11.30
2022-12-11T11:16:48.500Z,10.48
2022-12-11T11:19:23.596Z,11.43
2022-12-11T11:21:55.454Z,11.20
2022-12-11T11:24:33.034Z,12.07
2022-12-11T11:27:18.527Z,11.10
2022-12-11T11:29:52.995Z,9.10
2022-12-11T11:32:26.454Z,10.10
2022-12-11T11:34:56.236Z,8.82
2022-12-11T11:37:30.089Z,9.52
2022-12-11T11:40:09.173Z,9.88
2022-12-11T11:42:47.612Z,10.80
2022-12-11T11:45:23.514Z,8.52
2022-12-11T11:48:07.740Z,10.07
2022-12-11T11:50:46.725Z,8.50
2022-12-11T11:56:02.012Z,7.10
2022-12-11T11:58:41.948Z,7.10
2022-12-11T12:01:17.461Z,7.50
2022-12-11T12:03:49.204Z,7.78
2022-12-11T12:06:32.096Z,7.25
2022-12-11T12:09:13.060Z,5.40
2022-12-11T12:11:52.262Z,6.35
2022-12-11T12:17:26.799Z,5.20
2022-12-11T12:20:06.210Z,4.97
2022-12-11T12:23:02.253Z,4.30
2022-12-11T12:25:38.827Z,4.32
2022-12-11T12:28:22.175Z,4.18
2022-12-11T12:31:06.026Z,4.53
2022-12-11T12:33:50.577Z,5.10
2022-12-11T12:36:27.226Z,3.95
2022-12-11T12:39:01.139Z,4.32
2022-12-11T12:41:44.286Z,3.58
2022-12-11T12:44:19.790Z,4.10
2022-12-11T12:46:57.562Z,4.53
2022-12-11T12:49:41.104Z,3.85
2022-12-11T12:52:16.789Z,4.95
2022-12-11T12:57:41.306Z,3.80
2022-12-11T13:00:15.096Z,4.65
2022-12-11T13:02:53.858Z,4.82
2022-12-11T13:05:26.100Z,5.57
2022-12-11T13:07:58.917Z,4.53
2022-12-11T13:10:33.521Z,5.00
2022-12-11T13:13:05.107Z,5.15
2022-12-11T13:15:40.654Z,4.82
2022-12-11T13:18:36.023Z,6.45
2022-12-11T13:21:26.757Z,7.13
2022-12-11T13:23:57.395Z,7.57
2022-12-11T13:26:36.958Z,7.63
2022-12-11T13:29:06.880Z,8.02
2022-12-11T13:31:40.864Z,7.53
2022-12-11T13:34:18.805Z,7.10
2022-12-11T13:36:52.952Z,6.78
2022-12-11T13:39:27.557Z,7.30
2022-12-11T13:42:02.475Z,5.40
2022-12-11T13:44:38.204Z,7.10
2022-12-11T13:47:17.010Z,8.15
2022-12-11T13:49:50.993Z,8.18
2022-12-11T13:52:22.848Z,7.10
2022-12-11T13:54:55.686Z,5.80
2022-12-11T13:57:26.836Z,6.30
2022-12-11T13:59:59.557Z,6.43
2022-12-11T14:02:36.622Z,6.70
2022-12-11T14:05:10.200Z,6.35
2022-12-11T14:07:44.398Z,6.38
2022-12-11T14:10:20.743Z,5.35
2022-12-11T14:12:57.331Z,6.10
2022-12-11T14:15:27.553Z,5.68
2022-12-11T14:18:01.612Z,5.32
2022-12-11T14:20:33.591Z,4.40
2022-12-11T14:23:08.086Z,3.83
2022-12-11T14:25:37.858Z,3.80
2022-12-11T14:28:17.033Z,3.17
2022-12-11T14:30:52.098Z,4.03
2022-12-11T14:33:27.376Z,3.20
2022-12-11T14:35:58.371Z,4.13
2022-12-11T14:38:31.991Z,5.60
2022-12-11T14:41:06.152Z,5.80
2022-12-11T14:43:42.303Z,4.25
2022-12-11T14:46:18.662Z,3.83
2022-12-11T14:49:00.588Z,3.95
2022-12-11T14:51:34.025Z,4.03
2022-12-11T14:54:06.553Z,4.10
2022-12-11T14:56:36.932Z,3.92
2022-12-11T14:59:10.132Z,5.25
2022-12-11T15:01:40.395Z,12.52
2022-12-11T15:04:25.445Z,8.00
2022-12-11T15:06:55.830Z,9.75
2022-12-11T15:09:29.638Z,6.78
2022-12-11T15:12:02.173Z,5.57
2022-12-11T15:14:33.514Z,6.07
2022-12-11T15:17:03.489Z,6.30
2022-12-11T15:19:38.178Z,5.90
2022-12-11T15:22:11.235Z,5.25
2022-12-11T15:24:44.595Z,4.50
2022-12-11T15:27:27.556Z,5.10
2022-12-11T15:29:57.353Z,4.55
2022-12-11T15:32:28.880Z,4.80
2022-12-11T15:35:02.675Z,4.50
2022-12-11T15:37:36.239Z,4.93
2022-12-11T15:40:07.916Z,4.78
2022-12-11T15:42:39.928Z,9.75
2022-12-11T15:45:14.821Z,15.23
2022-12-11T15:47:45.879Z,24.40
2022-12-11T15:50:20.947Z,24.02
2022-12-11T15:52:51.589Z,23.35
2022-12-11T15:55:22.387Z,19.60
2022-12-11T15:57:54.558Z,11.52
2022-12-11T16:00:24.941Z,8.18
2022-12-11T16:02:54.776Z,9.88
2022-12-11T16:05:27.440Z,19.23
2022-12-11T16:07:59.653Z,26.27
2022-12-11T16:10:30.034Z,15.02
2022-12-11T16:12:59.909Z,19.30
2022-12-11T16:15:30.056Z,20.35
2022-12-11T16:18:04.474Z,23.00
2022-12-11T16:20:38.340Z,18.95
2022-12-11T16:23:08.410Z,16.58
2022-12-11T16:25:40.951Z,14.30
2022-12-11T16:28:11.631Z,12.20
2022-12-11T16:30:43.554Z,9.70
2022-12-11T16:33:14.125Z,10.80
2022-12-11T16:35:46.444Z,11.43
2022-12-11T16:38:16.156Z,12.63
2022-12-11T16:40:45.811Z,17.98
2022-12-11T16:43:15.487Z,15.40
2022-12-11T16:45:45.993Z,15.90
2022-12-11T16:48:15.720Z,10.90
2022-12-11T16:50:48.085Z,12.23
2022-12-11T16:53:17.818Z,8.70
2022-12-11T16:55:47.599Z,10.50
2022-12-11T16:58:20.189Z,27.08
2022-12-11T17:00:50.749Z,19.63
2022-12-11T17:03:21.235Z,21.95
2022-12-11T17:05:53.606Z,18.65
2022-12-11T17:08:23.351Z,20.60
2022-12-11T17:10:54.664Z,23.40
2022-12-11T17:13:24.373Z,24.00
2022-12-11T17:15:54.199Z,21.48
2022-12-11T17:18:23.927Z,18.45
2022-12-11T17:20:56.185Z,19.75
2022-12-11T17:23:26.967Z,19.88
2022-12-11T17:25:56.691Z,17.15
2022-12-11T17:28:26.393Z,17.60
2022-12-11T17:30:56.188Z,15.23
2022-12-11T17:33:25.999Z,13.07
2022-12-11T17:35:58.355Z,12.98
2022-12-11T17:38:28.461Z,12.15
2022-12-11T17:40:58.501Z,13.48
2022-12-11T17:43:28.298Z,10.85
2022-12-11T17:45:58.061Z,11.57
2022-12-11T17:48:28.094Z,9.73
2022-12-11T17:51:00.506Z,8.48
2022-12-11T17:53:30.503Z,8.13
2022-12-11T17:56:02.787Z,8.15
2022-12-11T17:58:33.713Z,7.65
2022-12-11T18:01:03.988Z,7.88
2022-12-11T18:03:33.719Z,7.78
2022-12-11T18:06:08.133Z,7.70
2022-12-11T18:08:38.298Z,7.60
2022-12-11T18:11:09.239Z,7.55
2022-12-11T18:13:39.075Z,7.65
2022-12-11T18:16:11.768Z,7.00
2022-12-11T18:18:41.911Z,6.35
2022-12-11T18:21:15.937Z,7.20
2022-12-11T18:23:46.219Z,6.90
2022-12-11T18:26:17.311Z,6.93
2022-12-11T18:28:48.226Z,6.60
2022-12-11T18:31:18.691Z,6.80
2022-12-11T18:33:48.846Z,6.70
2022-12-11T18:36:22.611Z,7.30
2022-12-11T18:38:52.517Z,6.32
2022-12-11T18:41:22.824Z,6.60
2022-12-11T18:43:54.837Z,8.18
2022-12-11T18:46:24.767Z,10.13
2022-12-11T18:48:54.776Z,8.27
2022-12-11T18:51:27.202Z,8.45
2022-12-11T18:53:57.085Z,8.90
2022-12-11T18:56:26.873Z,7.78
2022-12-11T18:58:56.522Z,7.70
2022-12-11T19:01:28.959Z,8.15
2022-12-11T19:04:05.376Z,7.60
2022-12-11T19:06:40.085Z,7.57
2022-12-11T19:09:10.448Z,8.73
2022-12-11T19:11:43.063Z,7.60
2022-12-11T19:14:13.899Z,8.30
2022-12-11T19:16:45.816Z,8.63
2022-12-11T19:19:17.966Z,7.82
2022-12-11T19:21:51.235Z,8.48
2022-12-11T19:24:24.106Z,7.85
2022-12-11T19:26:54.302Z,8.23
2022-12-11T19:29:26.021Z,8.32
2022-12-11T19:31:55.937Z,8.77
2022-12-11T19:34:26.072Z,8.82
2022-12-11T19:36:58.834Z,8.63
2022-12-11T19:39:28.716Z,8.68
2022-12-11T19:41:58.543Z,8.93
2022-12-11T19:44:28.323Z,10.23
2022-12-11T19:46:58.072Z,8.88
2022-12-11T19:49:27.849Z,8.40
2022-12-11T19:52:00.187Z,9.05
2022-12-11T19:54:29.893Z,9.02
2022-12-11T19:56:59.640Z,8.73
2022-12-11T19:59:29.392Z,8.60
2022-12-11T20:01:59.111Z,8.13
2022-12-11T20:04:29.895Z,8.20
2022-12-11T20:07:02.205Z,7.85
2022-12-11T20:09:33.689Z,8.90
2022-12-11T20:12:06.166Z,8.15
2022-12-11T20:14:35.852Z,8.40
2022-12-11T20:17:14.295Z,8.15
2022-12-11T20:19:45.047Z,8.65
2022-12-11T20:22:17.334Z,8.05
2022-12-11T20:24:47.034Z,8.52
2022-12-11T20:27:16.764Z,8.30
2022-12-11T20:29:46.548Z,8.45
2022-12-11T20:32:16.383Z,7.78
2022-12-11T20:34:46.789Z,7.72
2022-12-11T20:37:19.611Z,9.23
2022-12-11T20:39:49.462Z,8.52
2022-12-11T20:42:19.204Z,8.35
2022-12-11T20:44:49.640Z,8.07
2022-12-11T20:47:19.838Z,8.30
2022-12-11T20:49:49.820Z,8.30
2022-12-11T20:52:22.565Z,9.18
2022-12-11T20:54:52.266Z,8.15
2022-12-11T20:57:22.135Z,8.95
2022-12-11T20:59:51.913Z,9.00
2022-12-11T21:02:21.846Z,8.93
2022-12-11T21:04:51.619Z,8.50
2022-12-11T21:07:23.899Z,13.57
2022-12-11T21:09:53.572Z,13.05
2022-12-11T21:12:26.972Z,10.20
2022-12-11T21:15:00.977Z,8.60
2022-12-11T21:17:30.729Z,8.55
2022-12-11T21:20:00.460Z,10.50
2022-12-11T21:22:32.876Z,9.35
2022-12-11T21:25:03.222Z,9.57
2022-12-11T21:27:34.173Z,9.38
2022-12-11T21:30:04.840Z,9.70
2022-12-11T21:32:35.354Z,11.50
2022-12-11T21:35:05.117Z,12.70
2022-12-11T21:37:37.409Z,13.50
2022-12-11T21:40:08.085Z,13.80
2022-12-11T21:42:37.832Z,13.05
2022-12-11T21:47:58.976Z,12.95
2022-12-11T21:50:28.682Z,11.73
2022-12-11T21:53:02.126Z,11.45
2022-12-11T21:55:31.940Z,10.68
2022-12-11T21:58:01.702Z,10.88
2022-12-11T22:00:31.447Z,11.05
2022-12-11T22:03:01.145Z,9.85
2022-12-11T22:05:31.862Z,11.48
2022-12-11T22:08:04.272Z,11.38
2022-12-11T22:10:34.108Z,11.60
2022-12-11T22:13:03.857Z,10.65
2022-12-11T22:15:33.561Z,10.00
2022-12-11T22:18:03.245Z,11.07
2022-12-11T22:20:34.129Z,10.52
2022-12-11T22:23:06.398Z,11.35
2022-12-11T22:25:36.486Z,10.55
2022-12-11T22:28:07.150Z,11.35
2022-12-11T22:30:36.929Z,11.43
2022-12-11T22:33:06.914Z,12.15
2022-12-11T22:35:36.638Z,10.73
2022-12-11T22:38:09.276Z,11.68
2022-12-11T22:40:43.579Z,11.90
2022-12-11T22:43:13.259Z,10.48
2022-12-11T22:45:43.196Z,12.48
2022-12-11T22:48:13.187Z,10.93
2022-12-11T22:50:44.514Z,9.65
2022-12-11T22:53:16.865Z,10.40
2022-12-11T22:55:46.579Z,9.63
2022-12-11T22:58:21.636Z,8.82
2022-12-11T23:00:51.684Z,9.25
2022-12-11T23:03:21.416Z,7.97
2022-12-11T23:05:51.189Z,8.13
2022-12-11T23:08:23.577Z,8.02
2022-12-11T23:10:56.377Z,8.00
2022-12-11T23:13:26.071Z,7.53
2022-12-11T23:15:56.123Z,7.90
2022-12-11T23:18:25.825Z,7.72
2022-12-11T23:20:55.519Z,8.52
2022-12-11T23:23:27.881Z,9.18
2022-12-11T23:25:57.923Z,8.75
2022-12-11T23:28:27.637Z,8.05
2022-12-11T23:30:57.493Z,7.72
2022-12-11T23:33:28.995Z,7.55
2022-12-11T23:36:00.075Z,8.10
2022-12-11T23:38:32.566Z,8.25
2022-12-11T23:41:05.155Z,8.52
2022-12-11T23:43:36.263Z,8.82
2022-12-11T23:46:06.667Z,8.45
2022-12-11T23:48:36.500Z,8.20
2022-12-11T23:51:08.697Z,8.35
2022-12-11T23:53:41.226Z,7.85
2022-12-11T23:56:13.525Z,7.30
2022-12-11T23:58:43.422Z,8.05
